sensor_id;sensor_type;location;lat;lon;timestamp;P1;durP1;ratioP1;P2;durP2;ratioP2
44842;SDS011;31884;52.538;13.820;2024-03-02T00:01:11;59.00;;;32.10;;
44842;SDS011;31884;52.538;13.820;2024-03-02T00:03:37;61.67;;;30.92;;
44842;SDS011;31884;52.538;13.820;2024-03-02T00:06:03;61.97;;;33.45;;
44842;SDS011;31884;52.538;13.820;2024-03-02T00:08:29;57.90;;;31.60;;
44842;SDS011;31884;52.538;13.820;2024-03-02T00:10:58;55.70;;;32.05;;
44842;SDS011;31884;52.538;13.820;2024-03-02T00:13:25;63.35;;;32.22;;
44842;SDS011;31884;52.538;13.820;2024-03-02T00:15:54;69.15;;;31.80;;
44842;SDS011;31884;52.538;13.820;2024-03-02T00:21:01;58.88;;;30.98;;
44842;SDS011;31884;52.538;13.820;2024-03-02T00:23:29;63.80;;;34.38;;
44842;SDS011;31884;52.538;13.820;2024-03-02T00:25:56;62.60;;;34.40;;
44842;SDS011;31884;52.538;13.820;2024-03-02T00:30:58;63.35;;;34.15;;
44842;SDS011;31884;52.538;13.820;2024-03-02T00:33:33;62.88;;;33.15;;
44842;SDS011;31884;52.538;13.820;2024-03-02T00:36:01;55.22;;;30.15;;
44842;SDS011;31884;52.538;13.820;2024-03-02T00:38:28;58.38;;;31.83;;
44842;SDS011;31884;52.538;13.820;2024-03-02T00:40:54;63.22;;;33.92;;
44842;SDS011;31884;52.538;13.820;2024-03-02T00:45:49;68.65;;;36.38;;
44842;SDS011;31884;52.538;13.820;2024-03-02T00:48:15;71.70;;;36.70;;
44842;SDS011;31884;52.538;13.820;2024-03-02T00:50:41;79.78;;;38.65;;
44842;SDS011;31884;52.538;13.820;2024-03-02T00:53:09;70.18;;;36.78;;
44842;SDS011;31884;52.538;13.820;2024-03-02T00:55:37;76.03;;;36.72;;
44842;SDS011;31884;52.538;13.820;2024-03-02T00:58:03;75.35;;;38.42;;
44842;SDS011;31884;52.538;13.820;2024-03-02T01:00:28;67.60;;;35.25;;
44842;SDS011;31884;52.538;13.820;2024-03-02T01:02:54;68.32;;;36.10;;
44842;SDS011;31884;52.538;13.820;2024-03-02T01:05:19;66.28;;;36.17;;
44842;SDS011;31884;52.538;13.820;2024-03-02T01:07:45;70.28;;;37.83;;
44842;SDS011;31884;52.538;13.820;2024-03-02T01:10:11;74.05;;;40.97;;
44842;SDS011;31884;52.538;13.820;2024-03-02T01:12:36;65.78;;;35.50;;
44842;SDS011;31884;52.538;13.820;2024-03-02T01:15:02;74.38;;;36.15;;
44842;SDS011;31884;52.538;13.820;2024-03-02T01:17:30;66.45;;;34.80;;
44842;SDS011;31884;52.538;13.820;2024-03-02T01:19:56;65.82;;;34.83;;
44842;SDS011;31884;52.538;13.820;2024-03-02T01:22:22;65.93;;;35.08;;
44842;SDS011;31884;52.538;13.820;2024-03-02T01:24:50;64.82;;;33.17;;
44842;SDS011;31884;52.538;13.820;2024-03-02T01:27:16;63.90;;;34.15;;
44842;SDS011;31884;52.538;13.820;2024-03-02T01:29:41;78.10;;;37.55;;
44842;SDS011;31884;52.538;13.820;2024-03-02T01:32:07;58.80;;;32.97;;
44842;SDS011;31884;52.538;13.820;2024-03-02T01:34:32;63.30;;;34.47;;
44842;SDS011;31884;52.538;13.820;2024-03-02T01:36:58;63.72;;;34.15;;
44842;SDS011;31884;52.538;13.820;2024-03-02T01:39:23;67.80;;;35.05;;
44842;SDS011;31884;52.538;13.820;2024-03-02T01:41:48;67.65;;;35.00;;
44842;SDS011;31884;52.538;13.820;2024-03-02T01:44:14;68.93;;;35.85;;
44842;SDS011;31884;52.538;13.820;2024-03-02T01:46:40;66.70;;;35.92;;
44842;SDS011;31884;52.538;13.820;2024-03-02T01:49:05;68.32;;;34.35;;
44842;SDS011;31884;52.538;13.820;2024-03-02T01:51:31;52.20;;;31.70;;
44842;SDS011;31884;52.538;13.820;2024-03-02T01:53:57;75.50;;;37.80;;
44842;SDS011;31884;52.538;13.820;2024-03-02T01:56:22;68.05;;;35.35;;
44842;SDS011;31884;52.538;13.820;2024-03-02T01:58:48;77.25;;;40.28;;
44842;SDS011;31884;52.538;13.820;2024-03-02T02:01:13;73.00;;;37.20;;
44842;SDS011;31884;52.538;13.820;2024-03-02T02:03:39;77.40;;;40.15;;
44842;SDS011;31884;52.538;13.820;2024-03-02T02:06:05;64.63;;;35.15;;
44842;SDS011;31884;52.538;13.820;2024-03-02T02:08:32;77.72;;;40.80;;
44842;SDS011;31884;52.538;13.820;2024-03-02T02:10:57;72.32;;;37.05;;
44842;SDS011;31884;52.538;13.820;2024-03-02T02:13:23;73.72;;;36.90;;
44842;SDS011;31884;52.538;13.820;2024-03-02T02:15:49;71.30;;;38.08;;
44842;SDS011;31884;52.538;13.820;2024-03-02T02:18:15;68.75;;;36.20;;
44842;SDS011;31884;52.538;13.820;2024-03-02T02:20:40;70.18;;;37.70;;
44842;SDS011;31884;52.538;13.820;2024-03-02T02:23:06;69.25;;;40.10;;
44842;SDS011;31884;52.538;13.820;2024-03-02T02:25:34;79.93;;;42.10;;
44842;SDS011;31884;52.538;13.820;2024-03-02T02:28:00;79.05;;;43.28;;
44842;SDS011;31884;52.538;13.820;2024-03-02T02:30:27;90.13;;;44.78;;
44842;SDS011;31884;52.538;13.820;2024-03-02T02:32:54;85.97;;;45.38;;
44842;SDS011;31884;52.538;13.820;2024-03-02T02:35:19;84.00;;;46.53;;
44842;SDS011;31884;52.538;13.820;2024-03-02T02:37:45;83.72;;;43.85;;
44842;SDS011;31884;52.538;13.820;2024-03-02T02:40:12;80.95;;;43.20;;
44842;SDS011;31884;52.538;13.820;2024-03-02T02:42:38;89.20;;;48.63;;
44842;SDS011;31884;52.538;13.820;2024-03-02T02:45:04;91.53;;;48.83;;
44842;SDS011;31884;52.538;13.820;2024-03-02T02:47:33;96.38;;;51.90;;
44842;SDS011;31884;52.538;13.820;2024-03-02T02:50:00;86.10;;;46.38;;
44842;SDS011;31884;52.538;13.820;2024-03-02T02:52:30;87.22;;;47.80;;
44842;SDS011;31884;52.538;13.820;2024-03-02T02:54:58;76.70;;;42.67;;
44842;SDS011;31884;52.538;13.820;2024-03-02T02:57:23;76.10;;;41.92;;
44842;SDS011;31884;52.538;13.820;2024-03-02T02:59:49;85.10;;;44.88;;
44842;SDS011;31884;52.538;13.820;2024-03-02T03:02:14;86.13;;;43.95;;
44842;SDS011;31884;52.538;13.820;2024-03-02T03:04:40;83.10;;;44.97;;
44842;SDS011;31884;52.538;13.820;2024-03-02T03:07:05;73.93;;;41.67;;
44842;SDS011;31884;52.538;13.820;2024-03-02T03:09:31;72.30;;;41.70;;
44842;SDS011;31884;52.538;13.820;2024-03-02T03:11:57;81.20;;;45.40;;
44842;SDS011;31884;52.538;13.820;2024-03-02T03:14:22;73.35;;;40.30;;
44842;SDS011;31884;52.538;13.820;2024-03-02T03:16:48;69.65;;;37.40;;
44842;SDS011;31884;52.538;13.820;2024-03-02T03:19:13;75.82;;;41.80;;
44842;SDS011;31884;52.538;13.820;2024-03-02T03:21:39;77.00;;;37.97;;
44842;SDS011;31884;52.538;13.820;2024-03-02T03:24:04;76.38;;;39.45;;
44842;SDS011;31884;52.538;13.820;2024-03-02T03:26:30;70.10;;;39.03;;
44842;SDS011;31884;52.538;13.820;2024-03-02T03:28:55;79.38;;;40.97;;
44842;SDS011;31884;52.538;13.820;2024-03-02T03:31:21;65.78;;;38.00;;
44842;SDS011;31884;52.538;13.820;2024-03-02T03:33:46;65.40;;;36.63;;
44842;SDS011;31884;52.538;13.820;2024-03-02T03:36:11;74.25;;;39.58;;
44842;SDS011;31884;52.538;13.820;2024-03-02T03:38:37;71.55;;;38.33;;
44842;SDS011;31884;52.538;13.820;2024-03-02T03:41:02;73.85;;;40.60;;
44842;SDS011;31884;52.538;13.820;2024-03-02T03:43:28;65.07;;;34.92;;
44842;SDS011;31884;52.538;13.820;2024-03-02T03:45:54;67.20;;;36.65;;
44842;SDS011;31884;52.538;13.820;2024-03-02T03:48:19;58.95;;;34.97;;
44842;SDS011;31884;52.538;13.820;2024-03-02T03:50:45;69.25;;;34.70;;
44842;SDS011;31884;52.538;13.820;2024-03-02T03:53:10;71.70;;;36.08;;
44842;SDS011;31884;52.538;13.820;2024-03-02T03:55:36;62.38;;;35.70;;
44842;SDS011;31884;52.538;13.820;2024-03-02T03:58:02;60.95;;;35.42;;
44842;SDS011;31884;52.538;13.820;2024-03-02T04:00:27;63.55;;;36.88;;
44842;SDS011;31884;52.538;13.820;2024-03-02T04:02:52;67.22;;;34.97;;
44842;SDS011;31884;52.538;13.820;2024-03-02T04:05:18;60.22;;;35.40;;
44842;SDS011;31884;52.538;13.820;2024-03-02T04:07:43;65.43;;;37.95;;
44842;SDS011;31884;52.538;13.820;2024-03-02T04:10:09;63.22;;;36.95;;
44842;SDS011;31884;52.538;13.820;2024-03-02T04:12:35;67.00;;;37.90;;
44842;SDS011;31884;52.538;13.820;2024-03-02T04:15:02;67.03;;;36.65;;
44842;SDS011;31884;52.538;13.820;2024-03-02T04:17:29;63.08;;;33.28;;
44842;SDS011;31884;52.538;13.820;2024-03-02T04:19:56;58.15;;;32.53;;
44842;SDS011;31884;52.538;13.820;2024-03-02T04:22:21;61.67;;;34.03;;
44842;SDS011;31884;52.538;13.820;2024-03-02T04:24:47;55.28;;;31.55;;
44842;SDS011;31884;52.538;13.820;2024-03-02T04:27:12;60.80;;;31.92;;
44842;SDS011;31884;52.538;13.820;2024-03-02T04:29:38;65.63;;;34.38;;
44842;SDS011;31884;52.538;13.820;2024-03-02T04:32:03;60.45;;;33.92;;
44842;SDS011;31884;52.538;13.820;2024-03-02T04:34:29;54.08;;;32.30;;
44842;SDS011;31884;52.538;13.820;2024-03-02T04:36:55;52.70;;;30.27;;
44842;SDS011;31884;52.538;13.820;2024-03-02T04:39:20;54.08;;;31.75;;
44842;SDS011;31884;52.538;13.820;2024-03-02T04:41:46;64.93;;;35.50;;
44842;SDS011;31884;52.538;13.820;2024-03-02T04:44:11;63.33;;;35.22;;
44842;SDS011;31884;52.538;13.820;2024-03-02T04:46:37;62.53;;;35.20;;
44842;SDS011;31884;52.538;13.820;2024-03-02T04:49:02;72.20;;;36.90;;
44842;SDS011;31884;52.538;13.820;2024-03-02T04:51:28;75.63;;;41.10;;
44842;SDS011;31884;52.538;13.820;2024-03-02T04:53:53;61.97;;;36.90;;
44842;SDS011;31884;52.538;13.820;2024-03-02T04:56:19;59.78;;;33.00;;
44842;SDS011;31884;52.538;13.820;2024-03-02T04:59:04;61.17;;;32.58;;
44842;SDS011;31884;52.538;13.820;2024-03-02T05:01:29;62.83;;;35.05;;
44842;SDS011;31884;52.538;13.820;2024-03-02T05:03:55;73.05;;;41.75;;
44842;SDS011;31884;52.538;13.820;2024-03-02T05:06:21;59.33;;;33.80;;
44842;SDS011;31884;52.538;13.820;2024-03-02T05:08:47;59.17;;;33.83;;
44842;SDS011;31884;52.538;13.820;2024-03-02T05:11:13;55.08;;;32.50;;
44842;SDS011;31884;52.538;13.820;2024-03-02T05:14:04;72.30;;;38.72;;
44842;SDS011;31884;52.538;13.820;2024-03-02T05:16:34;73.65;;;38.00;;
44842;SDS011;31884;52.538;13.820;2024-03-02T05:19:01;67.55;;;38.90;;
44842;SDS011;31884;52.538;13.820;2024-03-02T05:21:27;76.85;;;40.75;;
44842;SDS011;31884;52.538;13.820;2024-03-02T05:23:52;86.28;;;47.33;;
44842;SDS011;31884;52.538;13.820;2024-03-02T05:26:18;65.50;;;37.22;;
44842;SDS011;31884;52.538;13.820;2024-03-02T05:28:43;59.00;;;33.55;;
44842;SDS011;31884;52.538;13.820;2024-03-02T05:31:11;57.70;;;33.20;;
44842;SDS011;31884;52.538;13.820;2024-03-02T05:33:40;65.32;;;38.65;;
44842;SDS011;31884;52.538;13.820;2024-03-02T05:36:06;73.57;;;42.47;;
44842;SDS011;31884;52.538;13.820;2024-03-02T05:38:32;64.35;;;36.55;;
44842;SDS011;31884;52.538;13.820;2024-03-02T05:40:59;68.57;;;37.83;;
44842;SDS011;31884;52.538;13.820;2024-03-02T05:43:25;77.25;;;43.85;;
44842;SDS011;31884;52.538;13.820;2024-03-02T05:45:50;69.85;;;38.72;;
44842;SDS011;31884;52.538;13.820;2024-03-02T05:48:16;69.25;;;39.88;;
44842;SDS011;31884;52.538;13.820;2024-03-02T05:50:41;66.00;;;38.83;;
44842;SDS011;31884;52.538;13.820;2024-03-02T05:53:07;68.70;;;38.70;;
44842;SDS011;31884;52.538;13.820;2024-03-02T05:55:32;71.88;;;38.88;;
44842;SDS011;31884;52.538;13.820;2024-03-02T05:57:58;60.28;;;34.58;;
44842;SDS011;31884;52.538;13.820;2024-03-02T06:00:23;68.13;;;37.70;;
44842;SDS011;31884;52.538;13.820;2024-03-02T06:02:49;76.53;;;44.40;;
44842;SDS011;31884;52.538;13.820;2024-03-02T06:05:14;67.85;;;39.35;;
44842;SDS011;31884;52.538;13.820;2024-03-02T06:07:40;69.22;;;38.00;;
44842;SDS011;31884;52.538;13.820;2024-03-02T06:10:06;62.10;;;36.03;;
44842;SDS011;31884;52.538;13.820;2024-03-02T06:12:33;57.08;;;33.55;;
44842;SDS011;31884;52.538;13.820;2024-03-02T06:14:59;60.35;;;33.28;;
44842;SDS011;31884;52.538;13.820;2024-03-02T06:17:25;52.53;;;30.05;;
44842;SDS011;31884;52.538;13.820;2024-03-02T06:19:50;61.97;;;35.30;;
44842;SDS011;31884;52.538;13.820;2024-03-02T06:22:16;62.35;;;37.20;;
44842;SDS011;31884;52.538;13.820;2024-03-02T06:24:41;61.35;;;33.33;;
44842;SDS011;31884;52.538;13.820;2024-03-02T06:27:07;55.85;;;31.95;;
44842;SDS011;31884;52.538;13.820;2024-03-02T06:29:33;68.90;;;37.63;;
44842;SDS011;31884;52.538;13.820;2024-03-02T06:32:01;64.97;;;35.55;;
44842;SDS011;31884;52.538;13.820;2024-03-02T06:34:27;52.80;;;31.25;;
44842;SDS011;31884;52.538;13.820;2024-03-02T06:36:52;59.38;;;34.88;;
44842;SDS011;31884;52.538;13.820;2024-03-02T06:39:18;66.80;;;36.47;;
44842;SDS011;31884;52.538;13.820;2024-03-02T06:41:43;52.28;;;31.45;;
44842;SDS011;31884;52.538;13.820;2024-03-02T06:44:08;61.28;;;36.10;;
44842;SDS011;31884;52.538;13.820;2024-03-02T06:46:34;63.45;;;36.17;;
44842;SDS011;31884;52.538;13.820;2024-03-02T06:49:00;64.30;;;37.05;;
44842;SDS011;31884;52.538;13.820;2024-03-02T06:51:27;71.05;;;37.92;;
44842;SDS011;31884;52.538;13.820;2024-03-02T06:53:52;60.83;;;34.83;;
44842;SDS011;31884;52.538;13.820;2024-03-02T06:56:18;66.47;;;36.05;;
44842;SDS011;31884;52.538;13.820;2024-03-02T06:58:43;69.72;;;39.80;;
44842;SDS011;31884;52.538;13.820;2024-03-02T07:01:09;66.10;;;37.33;;
44842;SDS011;31884;52.538;13.820;2024-03-02T07:03:34;64.90;;;36.42;;
44842;SDS011;31884;52.538;13.820;2024-03-02T07:06:00;63.67;;;35.05;;
44842;SDS011;31884;52.538;13.820;2024-03-02T07:08:25;59.38;;;33.63;;
44842;SDS011;31884;52.538;13.820;2024-03-02T07:10:51;56.67;;;33.80;;
44842;SDS011;31884;52.538;13.820;2024-03-02T07:13:16;60.60;;;34.20;;
44842;SDS011;31884;52.538;13.820;2024-03-02T07:15:42;66.88;;;35.38;;
44842;SDS011;31884;52.538;13.820;2024-03-02T07:18:20;61.13;;;33.42;;
44842;SDS011;31884;52.538;13.820;2024-03-02T07:20:45;63.80;;;34.78;;
44842;SDS011;31884;52.538;13.820;2024-03-02T07:23:10;62.88;;;35.67;;
44842;SDS011;31884;52.538;13.820;2024-03-02T07:25:36;69.82;;;37.95;;
44842;SDS011;31884;52.538;13.820;2024-03-02T07:28:01;57.97;;;33.53;;
44842;SDS011;31884;52.538;13.820;2024-03-02T07:30:27;62.10;;;34.08;;
44842;SDS011;31884;52.538;13.820;2024-03-02T07:32:53;62.00;;;32.15;;
44842;SDS011;31884;52.538;13.820;2024-03-02T07:35:18;61.58;;;32.75;;
44842;SDS011;31884;52.538;13.820;2024-03-02T07:37:44;62.47;;;31.88;;
44842;SDS011;31884;52.538;13.820;2024-03-02T07:40:10;55.13;;;29.08;;
44842;SDS011;31884;52.538;13.820;2024-03-02T07:42:39;58.22;;;33.28;;
44842;SDS011;31884;52.538;13.820;2024-03-02T07:45:05;62.63;;;31.70;;
44842;SDS011;31884;52.538;13.820;2024-03-02T07:47:32;63.72;;;34.47;;
44842;SDS011;31884;52.538;13.820;2024-03-02T07:49:58;60.67;;;33.95;;
44842;SDS011;31884;52.538;13.820;2024-03-02T07:52:24;58.03;;;33.90;;
44842;SDS011;31884;52.538;13.820;2024-03-02T07:54:49;56.50;;;32.53;;
44842;SDS011;31884;52.538;13.820;2024-03-02T07:57:15;59.53;;;33.08;;
44842;SDS011;31884;52.538;13.820;2024-03-02T07:59:41;57.63;;;31.80;;
44842;SDS011;31884;52.538;13.820;2024-03-02T08:02:07;53.28;;;31.02;;
44842;SDS011;31884;52.538;13.820;2024-03-02T08:04:33;61.42;;;34.70;;
44842;SDS011;31884;52.538;13.820;2024-03-02T08:06:59;53.45;;;29.55;;
44842;SDS011;31884;52.538;13.820;2024-03-02T08:09:24;63.80;;;35.00;;
44842;SDS011;31884;52.538;13.820;2024-03-02T08:11:50;54.42;;;31.63;;
44842;SDS011;31884;52.538;13.820;2024-03-02T08:14:16;53.90;;;31.23;;
44842;SDS011;31884;52.538;13.820;2024-03-02T08:16:41;62.65;;;33.33;;
44842;SDS011;31884;52.538;13.820;2024-03-02T08:19:07;56.15;;;33.13;;
44842;SDS011;31884;52.538;13.820;2024-03-02T08:21:33;63.22;;;34.03;;
44842;SDS011;31884;52.538;13.820;2024-03-02T08:24:00;62.08;;;35.25;;
44842;SDS011;31884;52.538;13.820;2024-03-02T08:26:26;58.55;;;33.08;;
44842;SDS011;31884;52.538;13.820;2024-03-02T08:28:54;55.42;;;30.95;;
44842;SDS011;31884;52.538;13.820;2024-03-02T08:31:20;58.63;;;33.10;;
44842;SDS011;31884;52.538;13.820;2024-03-02T08:33:45;55.22;;;28.75;;
44842;SDS011;31884;52.538;13.820;2024-03-02T08:36:11;54.72;;;31.63;;
44842;SDS011;31884;52.538;13.820;2024-03-02T08:38:37;52.13;;;30.35;;
44842;SDS011;31884;52.538;13.820;2024-03-02T08:41:02;52.58;;;27.60;;
44842;SDS011;31884;52.538;13.820;2024-03-02T08:43:28;43.55;;;25.83;;
44842;SDS011;31884;52.538;13.820;2024-03-02T08:45:54;42.60;;;24.70;;
44842;SDS011;31884;52.538;13.820;2024-03-02T08:48:20;46.03;;;26.85;;
44842;SDS011;31884;52.538;13.820;2024-03-02T08:50:46;48.63;;;26.45;;
44842;SDS011;31884;52.538;13.820;2024-03-02T08:53:11;45.30;;;27.02;;
44842;SDS011;31884;52.538;13.820;2024-03-02T08:55:37;54.10;;;29.95;;
44842;SDS011;31884;52.538;13.820;2024-03-02T08:58:02;50.00;;;30.85;;
44842;SDS011;31884;52.538;13.820;2024-03-02T09:00:28;51.60;;;28.60;;
44842;SDS011;31884;52.538;13.820;2024-03-02T09:02:53;46.25;;;27.98;;
44842;SDS011;31884;52.538;13.820;2024-03-02T09:05:19;47.88;;;27.30;;
44842;SDS011;31884;52.538;13.820;2024-03-02T09:07:45;50.72;;;29.85;;
44842;SDS011;31884;52.538;13.820;2024-03-02T09:10:10;56.38;;;28.95;;
44842;SDS011;31884;52.538;13.820;2024-03-02T09:12:36;47.90;;;28.08;;
44842;SDS011;31884;52.538;13.820;2024-03-02T09:15:03;45.60;;;27.17;;
44842;SDS011;31884;52.538;13.820;2024-03-02T09:17:29;46.22;;;25.13;;
44842;SDS011;31884;52.538;13.820;2024-03-02T09:19:55;43.83;;;24.40;;
44842;SDS011;31884;52.538;13.820;2024-03-02T09:22:21;50.88;;;25.58;;
44842;SDS011;31884;52.538;13.820;2024-03-02T09:24:46;40.13;;;24.95;;
44842;SDS011;31884;52.538;13.820;2024-03-02T09:27:12;40.15;;;23.20;;
44842;SDS011;31884;52.538;13.820;2024-03-02T09:29:38;53.47;;;27.52;;
44842;SDS011;31884;52.538;13.820;2024-03-02T09:32:04;49.80;;;28.42;;
44842;SDS011;31884;52.538;13.820;2024-03-02T09:34:30;50.05;;;27.40;;
44842;SDS011;31884;52.538;13.820;2024-03-02T09:36:56;41.33;;;24.67;;
44842;SDS011;31884;52.538;13.820;2024-03-02T09:39:22;39.80;;;22.73;;
44842;SDS011;31884;52.538;13.820;2024-03-02T09:41:48;42.63;;;24.50;;
44842;SDS011;31884;52.538;13.820;2024-03-02T09:44:13;38.67;;;22.60;;
44842;SDS011;31884;52.538;13.820;2024-03-02T09:46:39;36.67;;;22.63;;
44842;SDS011;31884;52.538;13.820;2024-03-02T09:49:05;34.55;;;21.15;;
44842;SDS011;31884;52.538;13.820;2024-03-02T09:51:31;41.80;;;24.55;;
44842;SDS011;31884;52.538;13.820;2024-03-02T09:53:57;34.13;;;20.20;;
44842;SDS011;31884;52.538;13.820;2024-03-02T09:56:22;35.45;;;21.48;;
44842;SDS011;31884;52.538;13.820;2024-03-02T09:58:48;36.53;;;22.70;;
44842;SDS011;31884;52.538;13.820;2024-03-02T10:01:13;32.83;;;20.25;;
44842;SDS011;31884;52.538;13.820;2024-03-02T10:03:39;41.50;;;22.05;;
44842;SDS011;31884;52.538;13.820;2024-03-02T10:06:23;43.72;;;24.08;;
44842;SDS011;31884;52.538;13.820;2024-03-02T10:08:53;40.42;;;23.35;;
44842;SDS011;31884;52.538;13.820;2024-03-02T10:11:25;40.85;;;22.63;;
44842;SDS011;31884;52.538;13.820;2024-03-02T10:14:05;36.17;;;20.80;;
44842;SDS011;31884;52.538;13.820;2024-03-02T10:16:35;33.25;;;19.92;;
44842;SDS011;31884;52.538;13.820;2024-03-02T10:19:35;34.25;;;20.13;;
44842;SDS011;31884;52.538;13.820;2024-03-02T10:21:57;32.28;;;18.95;;
44842;SDS011;31884;52.538;13.820;2024-03-02T10:24:24;25.17;;;16.67;;
44842;SDS011;31884;52.538;13.820;2024-03-02T10:26:50;22.83;;;14.55;;
44842;SDS011;31884;52.538;13.820;2024-03-02T10:29:16;28.23;;;16.45;;
44842;SDS011;31884;52.538;13.820;2024-03-02T10:31:43;26.08;;;17.35;;
44842;SDS011;31884;52.538;13.820;2024-03-02T10:34:10;30.75;;;19.23;;
44842;SDS011;31884;52.538;13.820;2024-03-02T10:36:37;29.40;;;18.23;;
44842;SDS011;31884;52.538;13.820;2024-03-02T10:39:06;36.70;;;19.92;;
44842;SDS011;31884;52.538;13.820;2024-03-02T10:41:33;32.85;;;20.20;;
44842;SDS011;31884;52.538;13.820;2024-03-02T10:44:03;29.13;;;17.90;;
44842;SDS011;31884;52.538;13.820;2024-03-02T10:46:30;25.90;;;16.48;;
44842;SDS011;31884;52.538;13.820;2024-03-02T10:48:58;26.85;;;15.40;;
44842;SDS011;31884;52.538;13.820;2024-03-02T10:51:25;33.92;;;20.10;;
44842;SDS011;31884;52.538;13.820;2024-03-02T10:53:52;32.88;;;17.85;;
44842;SDS011;31884;52.538;13.820;2024-03-02T10:56:22;30.48;;;18.67;;
44842;SDS011;31884;52.538;13.820;2024-03-02T10:58:55;31.08;;;17.45;;
44842;SDS011;31884;52.538;13.820;2024-03-02T11:01:24;30.05;;;16.95;;
44842;SDS011;31884;52.538;13.820;2024-03-02T11:03:51;27.50;;;16.40;;
44842;SDS011;31884;52.538;13.820;2024-03-02T11:06:17;32.08;;;17.25;;
44842;SDS011;31884;52.538;13.820;2024-03-02T11:08:43;28.55;;;16.45;;
44842;SDS011;31884;52.538;13.820;2024-03-02T11:11:15;27.95;;;17.80;;
44842;SDS011;31884;52.538;13.820;2024-03-02T11:13:47;25.55;;;15.48;;
44842;SDS011;31884;52.538;13.820;2024-03-02T11:16:36;27.52;;;17.17;;
44842;SDS011;31884;52.538;13.820;2024-03-02T11:19:03;31.27;;;17.65;;
44842;SDS011;31884;52.538;13.820;2024-03-02T11:21:30;30.17;;;18.67;;
44842;SDS011;31884;52.538;13.820;2024-03-02T11:23:58;27.73;;;16.52;;
44842;SDS011;31884;52.538;13.820;2024-03-02T11:26:24;27.73;;;17.75;;
44842;SDS011;31884;52.538;13.820;2024-03-02T11:28:49;28.65;;;18.10;;
44842;SDS011;31884;52.538;13.820;2024-03-02T11:31:15;26.23;;;16.67;;
44842;SDS011;31884;52.538;13.820;2024-03-02T11:33:40;29.38;;;18.58;;
44842;SDS011;31884;52.538;13.820;2024-03-02T11:36:06;23.45;;;15.85;;
44842;SDS011;31884;52.538;13.820;2024-03-02T11:38:33;25.63;;;16.42;;
44842;SDS011;31884;52.538;13.820;2024-03-02T11:41:00;26.17;;;15.77;;
44842;SDS011;31884;52.538;13.820;2024-03-02T11:43:29;27.13;;;14.10;;
44842;SDS011;31884;52.538;13.820;2024-03-02T11:46:03;33.50;;;18.02;;
44842;SDS011;31884;52.538;13.820;2024-03-02T11:48:32;26.02;;;15.68;;
44842;SDS011;31884;52.538;13.820;2024-03-02T11:51:00;25.23;;;13.50;;
44842;SDS011;31884;52.538;13.820;2024-03-02T11:53:26;27.20;;;15.57;;
44842;SDS011;31884;52.538;13.820;2024-03-02T11:55:54;22.33;;;14.90;;
44842;SDS011;31884;52.538;13.820;2024-03-02T11:58:20;21.88;;;13.00;;
44842;SDS011;31884;52.538;13.820;2024-03-02T12:00:52;21.63;;;12.85;;
44842;SDS011;31884;52.538;13.820;2024-03-02T12:03:18;24.55;;;15.32;;
44842;SDS011;31884;52.538;13.820;2024-03-02T12:05:50;24.92;;;15.25;;
44842;SDS011;31884;52.538;13.820;2024-03-02T12:08:16;19.83;;;13.60;;
44842;SDS011;31884;52.538;13.820;2024-03-02T12:10:41;22.85;;;15.07;;
44842;SDS011;31884;52.538;13.820;2024-03-02T12:13:08;22.65;;;12.57;;
44842;SDS011;31884;52.538;13.820;2024-03-02T12:15:36;20.67;;;14.10;;
44842;SDS011;31884;52.538;13.820;2024-03-02T12:18:03;22.10;;;12.77;;
44842;SDS011;31884;52.538;13.820;2024-03-02T12:20:30;23.70;;;14.02;;
44842;SDS011;31884;52.538;13.820;2024-03-02T12:23:00;23.90;;;13.68;;
44842;SDS011;31884;52.538;13.820;2024-03-02T12:25:27;21.85;;;12.05;;
44842;SDS011;31884;52.538;13.820;2024-03-02T12:27:55;18.92;;;12.50;;
44842;SDS011;31884;52.538;13.820;2024-03-02T12:30:21;21.10;;;13.30;;
44842;SDS011;31884;52.538;13.820;2024-03-02T12:32:48;20.25;;;12.20;;
44842;SDS011;31884;52.538;13.820;2024-03-02T12:35:14;20.50;;;11.93;;
44842;SDS011;31884;52.538;13.820;2024-03-02T12:37:49;19.52;;;11.90;;
44842;SDS011;31884;52.538;13.820;2024-03-02T12:40:17;22.98;;;12.50;;
44842;SDS011;31884;52.538;13.820;2024-03-02T12:42:44;19.92;;;12.75;;
44842;SDS011;31884;52.538;13.820;2024-03-02T12:45:11;22.98;;;12.68;;
44842;SDS011;31884;52.538;13.820;2024-03-02T12:47:37;16.80;;;10.82;;
44842;SDS011;31884;52.538;13.820;2024-03-02T12:50:05;16.38;;;10.98;;
44842;SDS011;31884;52.538;13.820;2024-03-02T12:52:32;17.48;;;10.65;;
44842;SDS011;31884;52.538;13.820;2024-03-02T12:54:58;17.85;;;11.68;;
44842;SDS011;31884;52.538;13.820;2024-03-02T12:57:29;19.42;;;11.43;;
44842;SDS011;31884;52.538;13.820;2024-03-02T12:59:58;20.90;;;11.98;;
44842;SDS011;31884;52.538;13.820;2024-03-02T13:02:27;21.23;;;11.80;;
44842;SDS011;31884;52.538;13.820;2024-03-02T13:04:56;17.13;;;9.95;;
44842;SDS011;31884;52.538;13.820;2024-03-02T13:07:24;17.40;;;9.65;;
44842;SDS011;31884;52.538;13.820;2024-03-02T13:09:50;18.60;;;11.43;;
44842;SDS011;31884;52.538;13.820;2024-03-02T13:12:16;17.77;;;11.32;;
44842;SDS011;31884;52.538;13.820;2024-03-02T13:14:42;17.50;;;10.82;;
44842;SDS011;31884;52.538;13.820;2024-03-02T13:17:08;21.65;;;12.23;;
44842;SDS011;31884;52.538;13.820;2024-03-02T13:19:34;21.25;;;12.50;;
44842;SDS011;31884;52.538;13.820;2024-03-02T13:22:00;18.58;;;11.00;;
44842;SDS011;31884;52.538;13.820;2024-03-02T13:24:28;17.40;;;11.50;;
44842;SDS011;31884;52.538;13.820;2024-03-02T13:26:54;17.63;;;10.10;;
44842;SDS011;31884;52.538;13.820;2024-03-02T13:29:22;19.30;;;11.35;;
44842;SDS011;31884;52.538;13.820;2024-03-02T13:31:47;16.40;;;10.02;;
44842;SDS011;31884;52.538;13.820;2024-03-02T13:34:13;21.17;;;11.05;;
44842;SDS011;31884;52.538;13.820;2024-03-02T13:36:39;23.13;;;13.27;;
44842;SDS011;31884;52.538;13.820;2024-03-02T13:39:04;19.30;;;11.57;;
44842;SDS011;31884;52.538;13.820;2024-03-02T13:41:31;22.23;;;11.85;;
44842;SDS011;31884;52.538;13.820;2024-03-02T13:43:57;22.38;;;13.15;;
44842;SDS011;31884;52.538;13.820;2024-03-02T13:46:26;25.30;;;12.68;;
44842;SDS011;31884;52.538;13.820;2024-03-02T13:48:51;22.27;;;13.02;;
44842;SDS011;31884;52.538;13.820;2024-03-02T13:51:17;26.48;;;13.13;;
44842;SDS011;31884;52.538;13.820;2024-03-02T13:53:42;23.10;;;13.35;;
44842;SDS011;31884;52.538;13.820;2024-03-02T13:56:08;20.60;;;12.77;;
44842;SDS011;31884;52.538;13.820;2024-03-02T13:58:33;26.33;;;14.50;;
44842;SDS011;31884;52.538;13.820;2024-03-02T14:00:59;22.38;;;12.80;;
44842;SDS011;31884;52.538;13.820;2024-03-02T14:03:26;21.80;;;12.07;;
44842;SDS011;31884;52.538;13.820;2024-03-02T14:05:52;23.65;;;12.93;;
44842;SDS011;31884;52.538;13.820;2024-03-02T14:08:18;21.95;;;13.15;;
44842;SDS011;31884;52.538;13.820;2024-03-02T14:10:43;22.63;;;13.60;;
44842;SDS011;31884;52.538;13.820;2024-03-02T14:13:09;21.88;;;13.63;;